• Join FlightAware (Why Join?)
  • Login
  • US Flag 
07:00AM EST


 

Airport Tracker/Info


-or-


 

Live Flight TrackerFlight Track Log ✈ N1881Q ✈ 02-May-2012 ✈ KILG - KROC

Flight Track Log - Related Links

Times and Time Zones

All times are in EDT time to prevent confusion due to time zone crossing. See the N1881Q flight status page for this flight to view local times or setup timezone preferences in your user account.

Time Position Orientation Groundspeed Altitude Reporting Facility
EDT Latitude Longitude Course Direction KTS MPH feet Rate Location/Type
03:39PM 39.6833 -75.5667 75° East 189 217 1,400  Level Philadelphia TRACON
03:40PM 39.6953 -75.5086 100° East 268 308 1,900 780 Climbing FAA TRACON SMA TRACON (SMA)
03:40PM 39.6872 -75.4503 84° East 245 282 2,400 2,160 Climbing FAA TRACON SMA TRACON (SMA)
03:41PM 39.6919 -75.3919 27° Northeast 264 304 4,800 3,600 Climbing FAA TRACON SMA TRACON (SMA)
03:42PM 39.7353 -75.3633 350° North 267 307 7,200 2,760 Climbing FAA TRACON SMA TRACON (SMA)
03:42PM 39.7833 -75.3742 340° North 292 336 8,500 2,160 Climbing FAA TRACON SMA TRACON (SMA)
03:43PM 39.8336 -75.3978 340° North 268 308 10,100 2,100 Climbing FAA TRACON SMA TRACON (SMA)
03:44PM 39.8769 -75.4186 348° North 264 304 11,300 1,380 Climbing FAA TRACON SMA TRACON (SMA)
03:44PM 39.9331 -75.4336 27° Northeast 291 335 12,000 480 Climbing FAA TRACON SMA TRACON (SMA)
03:45PM 39.9811 -75.4019 35° Northeast 308 354 12,000  Level FAA TRACON SMA TRACON (SMA)
03:46PM 40.0242 -75.3625 13° North 305 351 12,000  Level FAA TRACON SMA TRACON (SMA)
03:46PM 40.0739 -75.3478 320° Northwest 265 305 12,000  Level FAA TRACON SMA TRACON (SMA)
03:47PM 40.1125 -75.3903 308° West 274 315 12,000 60 Level FAA TRACON SMA TRACON (SMA)
03:48PM 40.1417 -75.4386 308° West 278 320 12,100 660 Climbing FAA TRACON SMA TRACON (SMA)
03:48PM 40.1744 -75.4942 311° West 278 320 12,900 1,920 Climbing FAA TRACON SMA TRACON (SMA)
03:49PM 40.2100 -75.5475 313° West 280 322 14,700 2,460 Climbing FAA TRACON SMA TRACON (SMA)
03:50PM 40.2419 -75.5931 312° West 277 319 16,200 1,620 Climbing FAA TRACON SMA TRACON (SMA)
03:50PM 40.2775 -75.6442 311° West 281 323 16,900 600 Climbing FAA TRACON SMA TRACON (SMA)
03:51PM 40.3153 -75.7019 310° West 299 344 17,000 360 Climbing FAA TRACON SMA TRACON (SMA)
03:52PM 40.3511 -75.7575 311° West 322 371 17,400 480 Climbing FAA TRACON SMA TRACON (SMA)
03:52PM 40.3728 -75.7900 298° West 324 373 17,700 1,440 Climbing FAA TRACON SMA TRACON (SMA)
03:54PM 40.4525 -75.9886 282° West 350 403 20,600 1,620 Climbing New York Center
03:55PM 40.4739 -76.1186 283° West 355 409 21,900 660 Climbing New York Center
03:56PM 40.4969 -76.2486 282° West 362 417 22,000  Climbing New York Center
03:57PM 40.5178 -76.3814 283° West 368 423 22,000  Level New York Center
03:58PM 40.5406 -76.5169 289° West 373 429 22,000  Level New York Center
03:59PM 40.5739 -76.6456 301° West 379 436 22,000  Level New York Center
04:00PM 40.6283 -76.7650 301° West 379 436 22,000  Level New York Center
04:01PM 40.6864 -76.8906 300° West 391 450 22,000  Level New York Center
04:02PM 40.7422 -77.0189 301° West 401 461 22,000  Level New York Center
04:03PM 40.7983 -77.1419 299° West 401 461 22,000  Level New York Center
04:04PM 40.8519 -77.2678 313° West 401 461 22,000 -180 Level New York Center
04:05PM 40.9156 -77.3589 351° North 390 449 21,700 -780 Descending New York Center
04:07PM 41.1133 -77.4025 356° North 401 461 20,000 -660 Descending Cleveland Center
04:08PM 41.2261 -77.4136 353° North 408 470 20,000  Level Cleveland Center
04:09PM 41.3392 -77.4331 356° North 413 475 20,000  Level Cleveland Center
04:10PM 41.4481 -77.4442 354° North 403 464 20,000  Level Cleveland Center
04:11PM 41.5569 -77.4583 354° North 397 457 20,000  Level Cleveland Center
04:12PM 41.6656 -77.4728 353° North 392 451 20,000  Level Cleveland Center
04:13PM 41.7828 -77.4919 356° North 387 445 20,000 -180 Level Cleveland Center
04:14PM 41.8936 -77.5033 354° North 392 451 19,700 -780 Descending Cleveland Center
04:15PM 41.9964 -77.5181 354° North 381 438 18,500 -1,440 Descending Cleveland Center
04:16PM 42.1008 -77.5328 354° North 373 429 16,900 -1,380 Descending Cleveland Center
04:17PM 42.2033 -77.5472 354° North 368 423 15,800 -1,260 Descending Cleveland Center
04:18PM 42.2975 -77.5597 352° North 358 412 14,400 -1,680 Descending Cleveland Center
04:18PM 42.3583 -77.5708 355° North 351 404 13,100 -1,440 Descending Cleveland Center
04:19PM 42.4544 -77.5831 356° North 340 391 12,100 -1,080 Descending Cleveland Center
04:21PM 42.5675 -77.5947 348° North 335 386 10,600 -1,440 Descending Cleveland Center
04:21PM 42.6408 -77.6167 343° North 311 358 9,100 -1,680 Descending Cleveland Center
04:22PM 42.7125 -77.6472 341° North 273 314 7,700 -1,680 Descending Cleveland Center
04:23PM 42.7822 -77.6806 339° North 264 304 5,800 -1,860 Descending Cleveland Center
04:24PM 42.8561 -77.7197 337° Northwest 279 321 4,000 -1,020 Descending Cleveland Center
04:25PM 42.9153 -77.7539 342° North 261 300 3,900 -780 Descending Cleveland Center
04:26PM 42.9850 -77.7847 27° Northeast 264 304 2,600 -720 Descending Cleveland Center
04:27PM 43.0422 -77.7453 33° Northeast 219 252 2,500 -720 Descending Cleveland Center
04:28PM 43.0792 -77.7122 33° Northeast 163 188 1,200 -1,320 Descending Cleveland Center